Time;durP1;ratioP1;P1;durP2;ratioP2;P2;SDS_P1;SDS_P2;PMS_P1;PMS_P2;Temp;Humidity;BMP_temperature;BMP_pressure;BME280_temperature;BME280_humidity;BME280_pressure;Samples;Min_cycle;Max_cycle;Signal;HPM_P1;HPM_P2
2021/05/17 02:47:53;;;;;;;2.90;2.65;;;9.00;99.90;;;;;;5236394;23;82817;-86
2021/05/17 02:50:19;;;;;;;2.80;2.60;;;9.10;99.90;;;;;;4981391;28;81994;-85
2021/05/17 02:52:45;;;;;;;3.13;2.78;;;9.20;99.90;;;;;;4992330;28;81682;-85
2021/05/17 02:55:15;;;;;;;3.15;3.05;;;9.30;99.90;;;;;;4985006;28;82829;-85
2021/05/17 02:57:40;;;;;;;3.58;2.88;;;9.30;99.90;;;;;;4992760;28;82008;-87
2021/05/17 03:00:08;;;;;;;3.30;3.03;;;9.40;99.90;;;;;;4991618;28;82571;-86
2021/05/17 03:02:58;;;;;;;2.65;2.45;;;9.50;99.90;;;;;;4973371;28;85150;-86
2021/05/17 03:05:25;;;;;;;2.90;2.70;;;9.50;99.90;;;;;;4995866;28;81890;-86
2021/05/17 03:08:02;;;;;;;3.53;2.60;;;9.50;99.90;;;;;;4992055;28;81828;-86
2021/05/17 03:10:29;;;;;;;2.58;2.47;;;9.40;99.90;;;;;;4988625;28;83281;-86
2021/05/17 03:12:57;;;;;;;3.40;3.10;;;9.50;99.90;;;;;;4991778;28;81563;-86
2021/05/17 03:15:26;;;;;;;3.35;2.92;;;9.50;99.90;;;;;;4991297;28;81898;-84
2021/05/17 03:17:56;;;;;;;2.92;2.60;;;9.40;99.90;;;;;;4989171;28;83240;-83
2021/05/17 03:20:24;;;;;;;4.45;4.25;;;9.40;99.90;;;;;;4972765;28;87066;-85
2021/05/17 03:22:52;;;;;;;3.88;3.63;;;9.20;99.90;;;;;;4989569;28;82901;-84
2021/05/17 03:25:25;;;;;;;4.53;3.92;;;9.20;99.90;;;;;;4973105;28;84259;-85
2021/05/17 03:27:52;;;;;;;4.95;3.17;;;9.10;99.90;;;;;;4978974;28;82074;-87
2021/05/17 03:30:20;;;;;;;4.05;2.92;;;9.00;99.90;;;;;;4991647;28;82221;-87
2021/05/17 03:32:46;;;;;;;4.80;2.55;;;9.00;99.90;;;;;;4982927;28;85445;-85
2021/05/17 03:35:12;;;;;;;2.60;2.40;;;8.90;99.90;;;;;;4985490;28;81871;-84
2021/05/17 03:37:38;;;;;;;4.32;3.10;;;8.80;99.90;;;;;;5000958;28;80908;-86
2021/05/17 03:40:24;;;;;;;3.55;2.35;;;8.80;99.90;;;;;;4971949;28;82811;-84
2021/05/17 03:42:49;;;;;;;3.30;2.45;;;8.80;99.90;;;;;;4981525;28;85339;-87
2021/05/17 03:45:16;;;;;;;3.15;2.00;;;8.80;99.90;;;;;;4990312;28;82798;-87
2021/05/17 03:47:42;;;;;;;2.70;2.50;;;8.80;99.90;;;;;;4982719;28;84602;-85
2021/05/17 03:50:11;;;;;;;2.20;1.70;;;8.80;99.90;;;;;;4980332;28;82238;-84
2021/05/17 03:52:36;;;;;;;3.42;2.20;;;9.00;99.90;;;;;;4981946;28;82485;-84
2021/05/17 03:55:04;;;;;;;4.22;3.35;;;9.00;99.90;;;;;;4962036;28;82177;-86
2021/05/17 03:57:30;;;;;;;5.97;3.35;;;9.10;99.90;;;;;;4971991;28;81665;-86
2021/05/17 03:59:55;;;;;;;5.80;3.80;;;9.20;99.90;;;;;;4969096;28;88608;-86
2021/05/17 04:02:24;;;;;;;3.60;3.40;;;9.30;99.90;;;;;;4962011;28;88625;-89
2021/05/17 04:05:06;;;;;;;4.03;3.58;;;9.40;99.90;;;;;;4968143;28;87219;-87
2021/05/17 04:15:26;;;;;;;4.05;2.75;;;9.50;99.90;;;;;;4971968;28;86817;-89
2021/05/17 04:17:52;;;;;;;4.18;3.45;;;9.60;99.90;;;;;;4970764;28;87119;-87
2021/05/17 04:20:17;;;;;;;3.65;3.35;;;9.70;99.90;;;;;;4969944;28;88193;-87
2021/05/17 04:22:43;;;;;;;3.75;3.42;;;9.70;99.90;;;;;;4971202;28;87441;-88
2021/05/17 04:25:09;;;;;;;3.55;3.33;;;9.80;99.90;;;;;;4971176;28;86466;-85
2021/05/17 04:27:35;;;;;;;4.53;3.40;;;9.80;99.90;;;;;;4971593;28;86220;-88
2021/05/17 04:30:06;;;;;;;4.22;3.85;;;9.80;99.90;;;;;;4969990;28;87193;-86
2021/05/17 04:32:32;;;;;;;5.25;3.42;;;9.80;99.90;;;;;;4970941;28;87960;-88
2021/05/17 04:34:57;;;;;;;4.20;3.30;;;9.80;99.90;;;;;;4952461;28;87709;-87
2021/05/17 04:37:23;;;;;;;3.40;3.03;;;9.80;99.90;;;;;;4968721;28;86707;-88
2021/05/17 04:39:48;;;;;;;3.72;3.03;;;9.90;99.90;;;;;;4968430;28;88184;-87
2021/05/17 04:42:15;;;;;;;4.03;3.75;;;;;;;;;;4971281;28;87329;-87
2021/05/17 04:44:40;;;;;;;4.85;4.45;;;9.90;99.90;;;;;;4971734;28;86828;-88
2021/05/17 04:47:06;;;;;;;5.63;5.10;;;9.90;99.90;;;;;;4967422;28;86504;-89
2021/05/17 04:49:32;;;;;;;5.72;5.30;;;9.90;99.90;;;;;;4971294;28;87562;-88
2021/05/17 04:51:57;;;;;;;5.28;4.88;;;10.00;99.90;;;;;;4971147;28;86790;-88
2021/05/17 04:54:23;;;;;;;7.63;7.05;;;10.00;99.90;;;;;;4954693;28;86933;-87
2021/05/17 04:56:49;;;;;;;8.55;7.95;;;10.00;99.90;;;;;;4969348;28;87603;-89
2021/05/17 04:59:14;;;;;;;7.82;6.35;;;10.00;99.90;;;;;;4977920;28;88490;-87
2021/05/17 05:01:40;;;;;;;4.05;3.75;;;10.10;99.90;;;;;;4969055;28;87999;-89
2021/05/17 05:04:06;;;;;;;5.07;3.97;;;10.10;99.90;;;;;;4969325;28;86959;-89
2021/05/17 05:06:32;;;;;;;4.20;3.90;;;10.20;99.90;;;;;;4953758;28;86879;-89
2021/05/17 05:08:57;;;;;;;5.03;3.00;;;10.20;99.90;;;;;;4950277;28;90645;-87
2021/05/17 05:11:23;;;;;;;4.10;3.60;;;10.30;99.90;;;;;;4966055;28;87036;-86
2021/05/17 05:13:49;;;;;;;3.42;3.10;;;10.40;99.90;;;;;;4964739;28;86983;-87
2021/05/17 05:16:15;;;;;;;4.20;3.33;;;10.40;99.90;;;;;;4970395;28;85817;-84
2021/05/17 05:18:41;;;;;;;3.60;3.40;;;10.50;99.90;;;;;;4966388;28;87653;-84
2021/05/17 05:21:06;;;;;;;5.25;3.85;;;10.70;99.90;;;;;;4966734;28;86540;-85
2021/05/17 05:23:32;;;;;;;5.53;4.35;;;10.80;99.90;;;;;;4961010;28;87944;-85
2021/05/17 05:28:49;;;;;;;5.13;3.83;;;11.10;99.90;;;;;;4972784;28;86752;-88
2021/05/17 05:31:21;;;;;;;10.52;3.78;;;11.20;99.90;;;;;;4973263;28;87465;-87
2021/05/17 05:33:47;;;;;;;4.25;3.92;;;11.20;99.90;;;;;;4977130;28;86979;-86
2021/05/17 05:36:13;;;;;;;4.97;4.68;;;11.10;99.90;;;;;;4971752;28;87310;-87
2021/05/17 05:38:39;;;;;;;6.15;5.03;;;11.20;99.90;;;;;;4951188;28;90144;-86
2021/05/17 05:41:04;;;;;;;5.82;4.32;;;11.20;99.90;;;;;;4969215;28;88312;-87
2021/05/17 05:43:30;;;;;;;5.72;5.32;;;11.20;99.90;;;;;;4969639;28;86756;-86
2021/05/17 05:45:56;;;;;;;6.43;5.70;;;11.30;99.90;;;;;;4970652;28;86949;-87
2021/05/17 05:48:21;;;;;;;4.72;3.80;;;11.30;99.90;;;;;;4967224;28;89234;-86
2021/05/17 05:50:47;;;;;;;5.70;4.07;;;11.30;99.90;;;;;;4968562;28;87810;-87
2021/05/17 05:53:16;;;;;;;3.90;3.50;;;11.20;99.90;;;;;;4965801;28;87029;-87
2021/05/17 05:55:43;;;;;;;4.10;3.33;;;11.20;99.90;;;;;;4970023;28;86670;-87
2021/05/17 05:58:09;;;;;;;5.18;3.90;;;11.20;99.90;;;;;;4966609;28;87297;-87
2021/05/17 06:00:35;;;;;;;4.80;3.63;;;11.20;99.90;;;;;;4964472;28;87107;-87
2021/05/17 06:03:01;;;;;;;4.40;3.47;;;11.20;99.90;;;;;;4960364;28;86409;-87
2021/05/17 06:05:28;;;;;;;4.90;4.20;;;11.30;99.90;;;;;;4966061;28;86017;-87
2021/05/17 06:07:54;;;;;;;6.05;5.50;;;11.30;99.90;;;;;;4965173;28;86863;-87
2021/05/17 06:10:20;;;;;;;5.50;3.50;;;11.30;99.90;;;;;;4967297;28;86962;-86
2021/05/17 06:12:47;;;;;;;3.80;3.50;;;11.30;99.90;;;;;;4967573;28;87773;-88
2021/05/17 06:15:15;;;;;;;3.30;3.00;;;11.30;99.90;;;;;;4966619;28;86713;-87
2021/05/17 06:17:42;;;;;;;4.05;3.75;;;11.30;99.90;;;;;;4966279;28;86993;-88
2021/05/17 06:20:09;;;;;;;4.50;2.42;;;11.30;99.90;;;;;;4966589;28;87864;-88
2021/05/17 06:22:37;;;;;;;3.15;3.03;;;11.30;99.90;;;;;;4966175;28;86910;-87
2021/05/17 06:25:11;;;;;;;4.03;3.75;;;11.40;99.90;;;;;;4968846;28;87164;-88
2021/05/17 06:27:38;;;;;;;4.47;4.07;;;11.40;99.90;;;;;;4984519;28;88304;-88
2021/05/17 06:30:10;;;;;;;4.28;2.60;;;11.40;99.90;;;;;;4987491;28;87246;-87
2021/05/17 06:32:40;;;;;;;3.15;2.95;;;11.20;99.90;;;;;;4970025;28;86868;-88
2021/05/17 06:35:16;;;;;;;3.67;3.47;;;11.20;99.90;;;;;;4963832;28;86433;-89
2021/05/17 06:37:42;;;;;;;3.53;3.38;;;11.20;99.90;;;;;;4986120;28;87950;-87
2021/05/17 06:40:09;;;;;;;4.20;2.03;;;11.30;99.90;;;;;;4987571;28;87221;-89
2021/05/17 06:42:34;;;;;;;4.25;3.65;;;11.40;99.90;;;;;;4970131;28;86833;-87
2021/05/17 06:45:00;;;;;;;6.13;4.47;;;11.50;99.90;;;;;;4965517;28;87110;-85
2021/05/17 06:47:27;;;;;;;5.57;5.18;;;11.60;99.90;;;;;;4961112;28;87159;-87
2021/05/17 06:49:52;;;;;;;5.57;5.03;;;11.60;99.90;;;;;;4967448;28;88193;-86
2021/05/17 06:52:24;;;;;;;4.22;3.92;;;11.80;99.90;;;;;;4968525;28;87296;-85
2021/05/17 06:54:56;;;;;;;5.97;5.38;;;11.90;99.90;;;;;;4967508;28;86131;-87
2021/05/17 06:57:28;;;;;;;2.92;2.35;;;12.00;99.90;;;;;;4966947;28;87501;-86
2021/05/17 06:59:58;;;;;;;5.45;4.55;;;12.30;99.90;;;;;;4966711;28;87406;-88
2021/05/17 07:02:24;;;;;;;4.60;3.95;;;12.40;99.90;;;;;;4944741;28;87924;-86
2021/05/17 07:04:51;;;;;;;4.75;4.50;;;12.50;99.90;;;;;;4965575;28;87032;-86
2021/05/17 07:12:49;;;;;;;4.43;4.13;;;12.70;99.90;;;;;;4967107;28;87081;-86
2021/05/17 07:15:15;;;;;;;4.75;4.45;;;12.80;99.90;;;;;;4965641;28;86911;-86
2021/05/17 07:17:44;;;;;;;6.00;5.10;;;12.90;99.90;;;;;;4965950;28;87842;-88
2021/05/17 07:20:11;;;;;;;4.40;4.10;;;13.00;99.90;;;;;;4964090;28;87297;-86
2021/05/17 07:25:21;;;;;;;4.80;4.20;;;13.20;99.90;;;;;;4965635;28;87482;-86
2021/05/17 07:27:48;;;;;;;5.57;5.10;;;13.50;99.90;;;;;;4947296;28;89309;-85
2021/05/17 07:30:14;;;;;;;4.88;4.47;;;13.80;98.40;;;;;;4965338;28;87918;-89
2021/05/17 07:32:39;;;;;;;4.60;3.97;;;14.00;99.00;;;;;;4965200;28;86967;-85
2021/05/17 07:35:06;;;;;;;6.40;5.88;;;14.20;97.80;;;;;;4965458;28;86567;-85
2021/05/17 07:37:32;;;;;;;4.72;3.70;;;14.30;96.70;;;;;;4965436;28;88637;-86
2021/05/17 07:39:58;;;;;;;6.13;4.38;;;14.20;96.30;;;;;;4965170;28;87090;-86
2021/05/17 07:42:24;;;;;;;4.40;4.00;;;14.30;96.40;;;;;;4965801;28;86971;-87
2021/05/17 07:44:50;;;;;;;4.45;4.10;;;14.80;96.30;;;;;;4965400;28;86169;-85
2021/05/17 07:47:15;;;;;;;4.80;4.50;;;15.10;95.90;;;;;;4955545;28;87465;-85
2021/05/17 07:49:42;;;;;;;5.68;5.22;;;15.50;96.50;;;;;;4964781;28;87822;-86
2021/05/17 07:52:10;;;;;;;4.18;3.88;;;15.90;94.30;;;;;;4971434;28;87981;-86
2021/05/17 07:54:37;;;;;;;4.28;3.97;;;16.30;94.80;;;;;;4968296;28;86779;-85
2021/05/17 07:57:05;;;;;;;7.07;6.50;;;16.90;95.00;;;;;;4966994;28;88708;-85
2021/05/17 07:59:32;;;;;;;7.28;6.85;;;17.30;92.30;;;;;;4972703;28;86860;-86
2021/05/17 08:01:59;;;;;;;7.00;6.60;;;17.70;92.00;;;;;;4963903;28;87047;-86
2021/05/17 08:04:25;;;;;;;6.85;6.43;;;18.10;91.60;;;;;;4964546;28;87127;-86
2021/05/17 08:06:52;;;;;;;6.35;5.95;;;18.40;88.80;;;;;;4965080;28;86911;-85
2021/05/17 08:09:18;;;;;;;8.70;8.25;;;18.40;81.50;;;;;;4969654;28;87487;-85
2021/05/17 08:11:46;;;;;;;8.70;7.97;;;18.50;79.70;;;;;;4974562;28;86938;-86
2021/05/17 08:14:12;;;;;;;7.50;7.20;;;18.20;78.90;;;;;;4963839;28;86917;-85
2021/05/17 08:16:38;;;;;;;7.80;7.30;;;18.20;78.80;;;;;;4963762;28;88519;-86
2021/05/17 08:19:04;;;;;;;10.18;9.80;;;18.50;79.40;;;;;;4971949;28;87047;-86
2021/05/17 08:21:30;;;;;;;8.35;7.95;;;18.60;75.40;;;;;;4971544;28;87051;-85
2021/05/17 08:23:57;;;;;;;11.48;10.98;;;18.70;73.60;;;;;;4963690;28;86575;-85
2021/05/17 08:26:24;;;;;;;10.43;10.02;;;18.40;70.10;;;;;;4962723;28;88060;-86
2021/05/17 08:28:50;;;;;;;11.68;10.98;;;18.20;72.10;;;;;;4963391;28;86935;-85
2021/05/17 08:31:18;;;;;;;10.45;9.93;;;17.70;70.90;;;;;;4963026;28;87206;-85
2021/05/17 08:33:44;;;;;;;8.98;8.63;;;17.10;72.90;;;;;;4964186;28;86237;-84
2021/05/17 08:36:11;;;;;;;9.73;9.25;;;16.90;74.80;;;;;;4971404;28;88179;-85
2021/05/17 08:38:37;;;;;;;8.70;8.30;;;16.40;74.40;;;;;;4963612;28;87433;-86
2021/05/17 08:41:03;;;;;;;5.70;5.38;;;16.10;77.20;;;;;;4969280;28;88034;-85
2021/05/17 08:43:29;;;;;;;5.47;5.07;;;16.10;81.20;;;;;;4963865;28;86515;-85
2021/05/17 08:45:56;;;;;;;6.45;6.03;;;15.90;82.30;;;;;;4964373;28;86928;-86
2021/05/17 08:48:22;;;;;;;7.10;6.80;;;15.80;79.40;;;;;;4962748;28;87508;-85
2021/05/17 08:50:48;;;;;;;2.70;2.60;;;15.70;82.80;;;;;;4963943;28;86994;-85
2021/05/17 08:53:14;;;;;;;4.43;3.95;;;15.70;83.70;;;;;;4963414;28;86456;-84
2021/05/17 08:55:41;;;;;;;4.97;4.68;;;15.50;81.10;;;;;;4963580;28;87263;-87
2021/05/17 08:58:07;;;;;;;3.30;3.20;;;15.70;82.10;;;;;;4960631;28;88605;-85
2021/05/17 09:00:33;;;;;;;4.30;4.13;;;15.80;77.80;;;;;;4979291;28;87549;-85
2021/05/17 09:02:59;;;;;;;6.18;5.97;;;15.50;79.90;;;;;;4980582;28;86200;-87
2021/05/17 09:05:33;;;;;;;4.85;4.65;;;15.20;79.60;;;;;;4973098;28;88143;-87
2021/05/17 09:08:04;;;;;;;4.72;4.53;;;15.40;80.30;;;;;;4961980;28;90028;-87
2021/05/17 09:10:36;;;;;;;5.32;5.13;;;15.50;78.20;;;;;;4975985;28;86918;-85
2021/05/17 09:13:06;;;;;;;7.25;6.95;;;15.30;78.70;;;;;;4967934;28;86926;-86
2021/05/17 09:15:54;;;;;;;5.85;5.65;;;15.10;78.60;;;;;;4980420;28;86543;-86
2021/05/17 09:18:22;;;;;;;6.18;5.90;;;15.00;78.40;;;;;;4970197;28;87313;-86
2021/05/17 09:20:52;;;;;;;4.90;4.70;;;14.90;78.50;;;;;;4969650;28;87012;-86
2021/05/17 09:23:23;;;;;;;6.25;5.97;;;15.00;78.50;;;;;;4969199;28;86428;-85
2021/05/17 09:26:09;;;;;;;7.18;6.88;;;15.40;78.30;;;;;;4967860;28;88994;-86
2021/05/17 09:28:45;;;;;;;9.23;8.27;;;15.80;76.80;;;;;;4966680;28;87043;-85
2021/05/17 09:31:24;;;;;;;4.85;4.55;;;16.10;75.00;;;;;;4968368;28;87869;-87
2021/05/17 09:33:55;;;;;;;5.50;5.30;;;16.10;73.60;;;;;;4960615;28;86898;-84
2021/05/17 09:36:30;;;;;;;3.90;3.70;;;16.00;74.80;;;;;;4968088;28;87261;-86
2021/05/17 09:39:18;;;;;;;5.20;4.95;;;16.20;75.90;;;;;;4967947;28;86843;-86
2021/05/17 09:41:45;;;;;;;7.68;7.28;;;16.80;73.90;;;;;;4967050;28;86888;-87
2021/05/17 09:44:15;;;;;;;7.38;7.07;;;17.80;71.50;;;;;;4968355;28;86911;-88
2021/05/17 09:47:06;;;;;;;7.32;7.03;;;19.30;64.20;;;;;;4973670;28;87386;-87
2021/05/17 09:49:34;;;;;;;8.52;8.13;;;21.00;60.60;;;;;;4964471;28;88368;-86
2021/05/17 09:52:16;;;;;;;11.77;11.27;;;22.60;58.40;;;;;;4968007;28;86540;-88
2021/05/17 09:54:56;;;;;;;11.00;10.57;;;23.00;50.00;;;;;;4973333;28;86943;-86
2021/05/17 09:57:34;;;;;;;11.70;11.30;;;26.30;44.40;;;;;;4966684;28;89518;-87
2021/05/17 10:00:16;;;;;;;12.80;12.30;;;26.30;44.50;;;;;;4967638;28;87642;-87
2021/05/17 10:02:52;;;;;;;16.77;16.10;;;27.90;41.70;;;;;;4966200;28;86952;-87
2021/05/17 10:05:19;;;;;;;10.15;9.75;;;29.10;36.00;;;;;;4968938;28;86912;-87
2021/05/17 10:07:48;;;;;;;14.38;13.77;;;27.70;37.00;;;;;;4971098;28;87502;-87
2021/05/17 10:10:15;;;;;;;21.15;19.92;;;27.70;37.60;;;;;;4976542;28;87958;-87
2021/05/17 10:12:41;;;;;;;26.42;21.15;;;26.80;40.20;;;;;;4967493;28;86940;-86
2021/05/17 10:15:12;;;;;;;102.97;44.45;;;27.80;37.50;;;;;;4967312;28;86380;-86
2021/05/17 10:17:39;;;;;;;30.15;14.63;;;29.10;36.50;;;;;;4970325;28;87676;-89
2021/05/17 10:20:07;;;;;;;53.42;21.33;;;30.60;34.10;;;;;;4970070;28;87062;-88
2021/05/17 10:22:34;;;;;;;10.90;9.07;;;30.70;34.70;;;;;;4968105;28;88343;-88
2021/05/17 10:25:03;;;;;;;12.73;12.02;;;30.60;34.60;;;;;;4980773;28;87110;-87
2021/05/17 10:27:31;;;;;;;12.38;11.65;;;28.40;35.20;;;;;;4970367;28;88478;-86
2021/05/17 10:30:06;;;;;;;13.25;12.65;;;27.50;36.70;;;;;;4977159;28;86985;-85
2021/05/17 10:32:41;;;;;;;21.48;20.55;;;28.40;37.70;;;;;;4968233;28;87110;-86
2021/05/17 10:35:09;;;;;;;13.27;12.77;;;26.40;37.00;;;;;;4969004;28;87864;-87
2021/05/17 10:37:37;;;;;;;6.68;6.47;;;26.20;37.50;;;;;;4952141;28;91184;-84
2021/05/17 10:40:05;;;;;;;10.45;10.05;;;24.10;40.00;;;;;;4978037;28;87204;-87
2021/05/17 10:43:34;;;;;;;10.70;10.30;;;23.20;40.90;;;;;;4968446;28;86521;-85
2021/05/17 10:48:34;;;;;;;14.40;13.80;;;22.60;42.70;;;;;;4971641;28;88450;-87
2021/05/17 10:51:16;;;;;;;9.70;9.30;;;21.40;50.00;;;;;;4979142;28;87055;-89
2021/05/17 10:53:46;;;;;;;14.65;14.13;;;21.00;45.80;;;;;;4989940;28;86618;-85
2021/05/17 10:56:44;;;;;;;8.00;7.70;;;20.10;52.70;;;;;;4975606;28;87831;-86
2021/05/17 11:02:01;;;;;;;9.38;8.98;;;20.80;48.50;;;;;;4970542;28;86730;-84
2021/05/17 11:04:31;;;;;;;9.77;9.38;;;20.70;48.60;;;;;;4966909;28;86681;-86
2021/05/17 11:07:09;;;;;;;7.88;7.57;;;20.60;48.30;;;;;;4973031;28;85529;-86
2021/05/17 11:09:48;;;;;;;8.73;8.40;;;19.90;55.90;;;;;;4967650;28;86972;-85
2021/05/17 11:12:29;;;;;;;8.65;8.27;;;19.90;50.30;;;;;;4951114;28;88786;-87
2021/05/17 11:15:12;;;;;;;9.50;9.10;;;19.10;59.00;;;;;;4969053;28;87722;-85
2021/05/17 11:18:18;;;;;;;7.25;6.95;;;18.50;51.80;;;;;;4967748;28;86571;-86
2021/05/17 11:20:46;;;;;;;6.70;6.50;;;18.10;60.10;;;;;;4965960;28;87413;-88
2021/05/17 11:23:27;;;;;;;6.68;6.28;;;18.40;53.00;;;;;;4966706;28;87278;-84
2021/05/17 11:28:43;;;;;;;5.30;5.00;;;18.30;53.60;;;;;;4966064;28;86959;-85
2021/05/17 11:34:01;;;;;;;6.07;5.88;;;18.40;59.20;;;;;;4952844;28;86148;-86
2021/05/17 11:36:50;;;;;;;5.10;4.90;;;18.40;53.60;;;;;;4965441;28;86848;-84
2021/05/17 11:39:45;;;;;;;4.90;4.70;;;18.20;55.50;;;;;;4965807;28;86962;-84
2021/05/17 11:42:13;;;;;;;4.53;4.32;;;17.60;55.90;;;;;;4951110;28;88350;-84
2021/05/17 11:44:43;;;;;;;6.22;5.93;;;18.00;61.60;;;;;;4965895;28;88069;-87
2021/05/17 11:47:35;;;;;;;6.07;5.78;;;18.20;61.60;;;;;;4965270;28;87003;-86
2021/05/17 11:50:02;;;;;;;6.15;5.95;;;17.70;56.50;;;;;;4953208;28;86711;-84
2021/05/17 11:52:30;;;;;;;5.82;5.53;;;17.80;55.80;;;;;;4946766;28;90074;-84
2021/05/17 11:54:58;;;;;;;7.15;6.85;;;17.60;59.70;;;;;;4966238;28;87552;-84
2021/05/17 11:57:28;;;;;;;9.05;8.65;;;18.30;55.30;;;;;;4978698;28;86657;-85
2021/05/17 11:59:54;;;;;;;6.20;6.00;;;18.40;55.60;;;;;;4959602;28;85847;-88
2021/05/17 12:02:20;;;;;;;5.50;5.30;;;19.00;56.10;;;;;;4965175;28;88063;-86
2021/05/17 12:04:47;;;;;;;6.38;6.18;;;20.80;54.00;;;;;;4964824;28;88782;-88
2021/05/17 12:07:14;;;;;;;8.10;7.75;;;20.40;53.60;;;;;;4960637;28;87968;-88
2021/05/17 12:09:48;;;;;;;9.10;8.73;;;21.20;52.30;;;;;;4946773;28;87026;-87
2021/05/17 12:12:14;;;;;;;7.35;7.05;;;;;;;;;;4967218;28;86932;-88
2021/05/17 12:14:42;;;;;;;7.78;7.32;;;21.30;50.70;;;;;;4971741;28;86844;-87
2021/05/17 12:17:19;;;;;;;7.72;7.43;;;21.30;51.20;;;;;;4968548;28;86845;-86
2021/05/17 12:19:53;;;;;;;8.30;8.00;;;21.10;58.10;;;;;;4962527;28;87005;-87
2021/05/17 12:22:22;;;;;;;7.68;7.40;;;20.40;54.50;;;;;;4966697;28;87230;-86
2021/05/17 12:24:48;;;;;;;7.40;7.10;;;20.30;54.20;;;;;;4957267;28;86981;-86
2021/05/17 12:27:16;;;;;;;7.53;7.22;;;20.80;54.10;;;;;;4973472;28;87311;-85
2021/05/17 12:30:01;;;;;;;7.28;6.93;;;24.40;52.00;;;;;;4973776;28;86689;-88
2021/05/17 12:32:33;;;;;;;6.90;6.60;;;25.40;46.10;;;;;;4964788;28;88513;-88
2021/05/17 12:35:02;;;;;;;8.77;8.48;;;25.50;46.10;;;;;;4942868;28;91188;-88
2021/05/17 12:37:32;;;;;;;10.43;9.82;;;24.60;43.50;;;;;;4966877;28;86850;-87
2021/05/17 12:40:25;;;;;;;9.17;8.83;;;24.40;43.90;;;;;;4965240;28;87052;-87
2021/05/17 12:43:17;;;;;;;9.52;9.05;;;24.30;52.30;;;;;;4970115;28;87262;-85
2021/05/17 12:45:45;;;;;;;8.80;8.50;;;22.60;52.10;;;;;;4961498;28;86779;-87
2021/05/17 12:48:39;;;;;;;11.70;11.20;;;22.60;47.70;;;;;;4965213;28;87529;-86
2021/05/17 12:51:22;;;;;;;13.45;12.95;;;21.80;46.20;;;;;;4955544;28;86360;-86
2021/05/17 12:53:50;;;;;;;10.90;10.50;;;21.20;51.40;;;;;;4964948;28;87094;-86
2021/05/17 12:56:31;;;;;;;10.00;9.60;;;20.20;48.40;;;;;;4965031;28;86987;-86
2021/05/17 12:59:03;;;;;;;9.32;8.93;;;20.20;49.10;;;;;;4947643;28;87804;-85
2021/05/17 13:01:29;;;;;;;9.93;9.43;;;19.90;49.10;;;;;;4963647;28;87009;-85
2021/05/17 13:03:56;;;;;;;8.77;8.48;;;18.90;52.40;;;;;;4948681;28;89953;-86
2021/05/17 13:06:28;;;;;;;5.90;5.60;;;18.90;52.90;;;;;;4959797;28;86961;-86
2021/05/17 13:09:00;;;;;;;4.65;4.40;;;18.30;57.90;;;;;;4963047;28;87051;-85
2021/05/17 13:11:38;;;;;;;6.38;5.97;;;17.70;61.00;;;;;;4962230;28;86966;-85
2021/05/17 13:14:14;;;;;;;5.97;5.57;;;18.00;65.30;;;;;;4965529;28;86901;-87
2021/05/17 13:16:50;;;;;;;6.72;6.38;;;18.00;64.00;;;;;;4964149;28;86690;-86
2021/05/17 13:33:20;;;;;;;5.38;5.18;;;15.40;71.50;;;;;;4958597;28;86955;-85
2021/05/17 13:35:52;;;;;;;4.03;3.70;;;15.20;70.60;;;;;;4965086;28;88161;-84
2021/05/17 13:38:18;;;;;;;6.50;6.15;;;15.70;78.30;;;;;;4941345;28;89125;-87
2021/05/17 13:40:44;;;;;;;8.07;7.68;;;16.10;79.70;;;;;;4970014;28;87372;-84
2021/05/17 13:43:09;;;;;;;7.60;7.28;;;17.10;79.50;;;;;;4963291;28;86205;-87
2021/05/17 13:45:35;;;;;;;5.50;5.18;;;16.60;76.30;;;;;;4968252;28;86822;-85
2021/05/17 13:48:01;;;;;;;6.63;6.35;;;;;;;;;;4968366;28;86955;-88
2021/05/17 13:50:27;;;;;;;8.82;8.52;;;20.40;64.00;;;;;;4970225;28;87817;-88
2021/05/17 13:52:53;;;;;;;6.88;6.38;;;20.90;62.20;;;;;;4970006;28;87135;-87
2021/05/17 13:55:19;;;;;;;7.40;7.10;;;23.00;57.90;;;;;;4970121;28;89077;-86
2021/05/17 13:57:45;;;;;;;10.00;9.38;;;22.60;57.30;;;;;;4969734;28;87092;-85
2021/05/17 14:00:12;;;;;;;10.45;9.95;;;22.90;55.80;;;;;;4969533;28;86982;-87
2021/05/17 14:02:39;;;;;;;12.68;12.18;;;23.00;55.40;;;;;;4970416;28;87017;-86
2021/05/17 14:05:06;;;;;;;6.45;6.15;;;22.00;54.20;;;;;;4970485;28;87164;-84
2021/05/17 14:07:31;;;;;;;9.93;9.52;;;22.20;52.30;;;;;;4970837;28;86225;-86
2021/05/17 14:09:57;;;;;;;6.20;6.00;;;21.60;56.50;;;;;;4970179;28;87604;-86
2021/05/17 14:12:22;;;;;;;6.43;6.13;;;21.00;57.30;;;;;;4969590;28;87731;-87
2021/05/17 14:14:48;;;;;;;10.88;10.38;;;20.10;58.90;;;;;;4969607;28;89206;-86
2021/05/17 14:17:17;;;;;;;8.38;8.07;;;20.30;61.70;;;;;;4968702;28;87185;-87
2021/05/17 14:19:43;;;;;;;8.52;8.23;;;19.40;59.10;;;;;;4969156;28;87151;-88
2021/05/17 14:22:11;;;;;;;11.00;10.50;;;19.30;59.90;;;;;;4975435;28;87082;-87
2021/05/17 14:24:37;;;;;;;11.07;10.38;;;19.10;61.70;;;;;;4979924;28;87170;-88
2021/05/17 14:27:03;;;;;;;9.15;8.75;;;;;;;;;;4980602;28;86861;-88
2021/05/17 14:29:29;;;;;;;6.05;5.75;;;18.40;60.70;;;;;;4985686;28;86291;-87
2021/05/17 14:31:56;;;;;;;5.72;5.53;;;18.10;62.00;;;;;;4972018;28;86220;-87
2021/05/17 14:34:21;;;;;;;8.55;8.15;;;17.90;63.60;;;;;;4973068;28;87320;-86
2021/05/17 14:36:50;;;;;;;7.25;6.95;;;17.60;65.50;;;;;;4985965;28;86956;-84
2021/05/17 14:39:16;;;;;;;8.80;8.30;;;16.90;69.50;;;;;;4980917;28;87732;-88
2021/05/17 14:41:42;;;;;;;7.38;7.00;;;16.60;75.60;;;;;;4980313;28;86302;-87
2021/05/17 14:44:08;;;;;;;5.20;5.00;;;16.90;74.00;;;;;;4969743;28;87206;-88
2021/05/17 14:46:33;;;;;;;7.60;7.28;;;17.70;70.10;;;;;;4969227;28;87399;-88
2021/05/17 14:48:59;;;;;;;5.50;5.20;;;18.30;71.90;;;;;;4969668;28;87036;-87
2021/05/17 14:51:25;;;;;;;7.15;6.65;;;18.80;69.40;;;;;;4967965;28;87168;-88
2021/05/17 14:53:51;;;;;;;5.75;5.45;;;18.70;68.20;;;;;;4970545;28;87752;-86
2021/05/17 14:56:17;;;;;;;4.63;4.43;;;17.40;67.40;;;;;;4968503;28;86286;-88
2021/05/17 14:58:43;;;;;;;8.32;7.93;;;17.50;67.70;;;;;;4986189;28;86361;-88
2021/05/17 15:01:09;;;;;;;5.55;5.35;;;16.80;65.80;;;;;;4983902;28;86266;-89
2021/05/17 15:03:35;;;;;;;7.95;7.55;;;;;;;;;;4970397;28;88182;-88
2021/05/17 15:06:00;;;;;;;6.47;6.18;;;15.80;71.20;;;;;;4963275;28;89873;-87
2021/05/17 15:08:26;;;;;;;4.10;3.80;;;15.50;69.20;;;;;;4985866;28;86110;-87
2021/05/17 15:10:52;;;;;;;5.53;5.22;;;15.50;70.70;;;;;;4984259;28;86271;-83
2021/05/17 15:13:18;;;;;;;8.00;7.40;;;15.50;69.10;;;;;;4973607;28;87702;-84
2021/05/17 15:15:45;;;;;;;5.10;4.80;;;15.70;68.90;;;;;;4976466;28;87390;-84
2021/05/17 15:18:12;;;;;;;6.55;6.13;;;16.20;69.80;;;;;;4978572;28;86548;-85
2021/05/17 15:20:41;;;;;;;5.72;5.32;;;16.80;69.20;;;;;;4965894;28;85548;-87
2021/05/17 15:23:18;;;;;;;5.28;5.07;;;17.50;64.40;;;;;;4981068;28;87729;-87
2021/05/17 15:26:11;;;;;;;5.88;5.57;;;18.20;64.80;;;;;;4972308;28;86906;-85
2021/05/17 15:28:37;;;;;;;6.15;5.88;;;19.00;61.70;;;;;;4913761;28;87431;-89
2021/05/17 15:31:04;;;;;;;10.27;9.88;;;19.80;59.80;;;;;;4967686;28;86709;-86
2021/05/17 15:33:30;;;;;;;8.75;8.45;;;20.80;56.90;;;;;;4964946;28;88036;-88
2021/05/17 15:35:56;;;;;;;6.50;6.20;;;;;;;;;;4975943;28;87087;-87
2021/05/17 15:38:22;;;;;;;5.18;4.97;;;20.60;55.80;;;;;;4971139;28;87142;-86
2021/05/17 15:40:49;;;;;;;6.57;6.38;;;21.10;55.40;;;;;;4970466;28;87328;-88
2021/05/17 15:43:15;;;;;;;8.43;7.97;;;21.40;53.60;;;;;;4971876;28;87409;-88
2021/05/17 15:45:41;;;;;;;11.27;10.88;;;21.90;51.90;;;;;;4971712;28;86840;-85
2021/05/17 15:48:07;;;;;;;16.67;16.02;;;21.60;51.80;;;;;;4969777;28;87187;-85
2021/05/17 15:50:34;;;;;;;13.90;13.40;;;21.80;51.80;;;;;;4969294;28;86856;-87
2021/05/17 15:53:01;;;;;;;18.45;17.75;;;21.90;49.70;;;;;;4968661;28;88716;-86
2021/05/17 15:55:28;;;;;;;17.77;17.13;;;21.40;48.70;;;;;;4968880;28;88816;-87
2021/05/17 15:57:54;;;;;;;17.63;16.92;;;21.20;49.50;;;;;;4968942;28;86944;-87
2021/05/17 16:00:21;;;;;;;15.95;15.35;;;20.80;49.90;;;;;;4968854;28;86887;-87
2021/05/17 16:02:48;;;;;;;13.98;13.38;;;20.20;50.50;;;;;;4967876;28;88216;-85
2021/05/17 16:05:14;;;;;;;12.10;11.65;;;19.40;51.90;;;;;;4963046;28;88175;-84
2021/05/17 16:07:40;;;;;;;7.93;7.63;;;18.80;53.10;;;;;;4968477;28;86983;-87
2021/05/17 16:10:10;;;;;;;8.02;7.63;;;17.20;60.00;;;;;;4966234;28;86153;-84
2021/05/17 16:12:43;;;;;;;6.40;6.10;;;17.50;61.70;;;;;;4966293;28;86862;-84
2021/05/17 16:15:15;;;;;;;5.95;5.65;;;17.50;62.30;;;;;;4963718;28;86897;-84
2021/05/17 16:23:03;;;;;;;5.60;5.40;;;;;;;;;;4972406;28;87264;-88
2021/05/17 16:25:29;;;;;;;6.38;6.07;;;17.00;57.60;;;;;;4967403;28;86774;-85
2021/05/17 16:27:54;;;;;;;6.00;5.70;;;17.10;59.40;;;;;;4944043;28;86976;-83
2021/05/17 16:30:20;;;;;;;6.20;6.00;;;17.20;57.90;;;;;;4967949;28;86820;-84
2021/05/17 16:32:47;;;;;;;6.13;5.93;;;17.30;59.40;;;;;;4966886;28;88696;-85
2021/05/17 16:35:15;;;;;;;6.45;6.25;;;17.70;59.30;;;;;;4949788;28;90145;-85